sensor_id;sensor_type;location;lat;lon;timestamp;temperature;humidity
41928;DHT22;27616;51.420;6.788;2023-09-19T00:02:18;16.70;99.90
41928;DHT22;27616;51.420;6.788;2023-09-19T00:04:44;16.70;99.90
41928;DHT22;27616;51.420;6.788;2023-09-19T00:07:10;16.70;99.90
41928;DHT22;27616;51.420;6.788;2023-09-19T00:09:35;16.70;99.90
41928;DHT22;27616;51.420;6.788;2023-09-19T00:12:06;16.60;99.90
41928;DHT22;27616;51.420;6.788;2023-09-19T00:14:35;16.60;99.90
41928;DHT22;27616;51.420;6.788;2023-09-19T00:17:04;16.60;99.90
41928;DHT22;27616;51.420;6.788;2023-09-19T00:19:35;16.60;99.90
41928;DHT22;27616;51.420;6.788;2023-09-19T00:22:01;16.50;99.90
41928;DHT22;27616;51.420;6.788;2023-09-19T00:24:26;16.50;99.90
41928;DHT22;27616;51.420;6.788;2023-09-19T00:26:53;16.60;99.90
41928;DHT22;27616;51.420;6.788;2023-09-19T00:29:21;16.50;99.90
41928;DHT22;27616;51.420;6.788;2023-09-19T00:31:50;16.50;99.90
41928;DHT22;27616;51.420;6.788;2023-09-19T00:34:15;16.50;99.90
41928;DHT22;27616;51.420;6.788;2023-09-19T00:36:41;16.50;99.90
41928;DHT22;27616;51.420;6.788;2023-09-19T00:39:08;16.50;99.90
41928;DHT22;27616;51.420;6.788;2023-09-19T00:41:35;16.50;99.90
41928;DHT22;27616;51.420;6.788;2023-09-19T00:44:02;16.50;99.90
41928;DHT22;27616;51.420;6.788;2023-09-19T00:46:31;16.40;99.90
41928;DHT22;27616;51.420;6.788;2023-09-19T00:48:58;16.40;99.90
41928;DHT22;27616;51.420;6.788;2023-09-19T00:51:25;16.40;99.90
41928;DHT22;27616;51.420;6.788;2023-09-19T00:53:53;16.30;99.90
41928;DHT22;27616;51.420;6.788;2023-09-19T00:56:19;16.30;99.90
41928;DHT22;27616;51.420;6.788;2023-09-19T00:58:46;16.30;99.90
41928;DHT22;27616;51.420;6.788;2023-09-19T01:01:13;16.30;99.90
41928;DHT22;27616;51.420;6.788;2023-09-19T01:03:41;16.30;99.90
41928;DHT22;27616;51.420;6.788;2023-09-19T01:06:07;16.30;99.90
41928;DHT22;27616;51.420;6.788;2023-09-19T01:08:38;16.20;99.90
41928;DHT22;27616;51.420;6.788;2023-09-19T01:11:21;16.20;99.90
41928;DHT22;27616;51.420;6.788;2023-09-19T01:14:20;16.20;99.90
41928;DHT22;27616;51.420;6.788;2023-09-19T01:17:20;16.10;99.90
41928;DHT22;27616;51.420;6.788;2023-09-19T01:23:00;16.10;99.90
41928;DHT22;27616;51.420;6.788;2023-09-19T01:30:57;16.00;99.90
41928;DHT22;27616;51.420;6.788;2023-09-19T01:33:24;16.00;99.90
41928;DHT22;27616;51.420;6.788;2023-09-19T01:35:51;16.00;99.90
41928;DHT22;27616;51.420;6.788;2023-09-19T01:38:19;16.00;99.90
41928;DHT22;27616;51.420;6.788;2023-09-19T01:41:11;15.90;99.90
41928;DHT22;27616;51.420;6.788;2023-09-19T01:43:46;15.90;99.90
41928;DHT22;27616;51.420;6.788;2023-09-19T01:46:26;15.90;99.90
41928;DHT22;27616;51.420;6.788;2023-09-19T01:49:15;15.90;99.90
41928;DHT22;27616;51.420;6.788;2023-09-19T01:52:04;15.90;99.90
41928;DHT22;27616;51.420;6.788;2023-09-19T01:54:41;15.90;99.90
41928;DHT22;27616;51.420;6.788;2023-09-19T01:59:52;15.80;99.90
41928;DHT22;27616;51.420;6.788;2023-09-19T02:02:21;15.80;99.90
41928;DHT22;27616;51.420;6.788;2023-09-19T02:04:48;15.80;99.90
41928;DHT22;27616;51.420;6.788;2023-09-19T02:07:16;15.80;99.90
41928;DHT22;27616;51.420;6.788;2023-09-19T02:09:42;15.80;99.90
41928;DHT22;27616;51.420;6.788;2023-09-19T02:12:09;15.70;99.90
41928;DHT22;27616;51.420;6.788;2023-09-19T02:14:35;15.70;99.90
41928;DHT22;27616;51.420;6.788;2023-09-19T02:17:03;15.70;99.90
41928;DHT22;27616;51.420;6.788;2023-09-19T02:19:33;15.70;99.90
41928;DHT22;27616;51.420;6.788;2023-09-19T02:22:00;15.70;99.90
41928;DHT22;27616;51.420;6.788;2023-09-19T02:24:26;15.70;99.90
41928;DHT22;27616;51.420;6.788;2023-09-19T02:26:52;15.60;99.90
41928;DHT22;27616;51.420;6.788;2023-09-19T02:29:18;15.60;99.90
41928;DHT22;27616;51.420;6.788;2023-09-19T02:31:43;15.60;99.90
41928;DHT22;27616;51.420;6.788;2023-09-19T02:34:11;15.60;99.90
41928;DHT22;27616;51.420;6.788;2023-09-19T02:36:37;15.60;99.90
41928;DHT22;27616;51.420;6.788;2023-09-19T02:39:03;15.60;99.90
41928;DHT22;27616;51.420;6.788;2023-09-19T02:41:30;15.60;99.90
41928;DHT22;27616;51.420;6.788;2023-09-19T02:43:58;15.60;99.90
41928;DHT22;27616;51.420;6.788;2023-09-19T02:46:26;15.60;99.90
41928;DHT22;27616;51.420;6.788;2023-09-19T02:48:52;15.60;99.90
41928;DHT22;27616;51.420;6.788;2023-09-19T02:51:20;15.50;99.90
41928;DHT22;27616;51.420;6.788;2023-09-19T02:53:46;15.50;99.90
41928;DHT22;27616;51.420;6.788;2023-09-19T02:56:13;15.50;99.90
41928;DHT22;27616;51.420;6.788;2023-09-19T02:58:39;15.50;99.90
41928;DHT22;27616;51.420;6.788;2023-09-19T03:01:10;15.50;99.90
41928;DHT22;27616;51.420;6.788;2023-09-19T03:03:40;15.50;99.90
41928;DHT22;27616;51.420;6.788;2023-09-19T03:06:06;15.50;99.90
41928;DHT22;27616;51.420;6.788;2023-09-19T03:08:35;15.50;99.90
41928;DHT22;27616;51.420;6.788;2023-09-19T03:11:08;15.50;99.90
41928;DHT22;27616;51.420;6.788;2023-09-19T03:13:38;15.50;99.90
41928;DHT22;27616;51.420;6.788;2023-09-19T03:16:05;15.50;99.90
41928;DHT22;27616;51.420;6.788;2023-09-19T03:18:35;15.50;99.90
41928;DHT22;27616;51.420;6.788;2023-09-19T03:21:01;15.40;99.90
41928;DHT22;27616;51.420;6.788;2023-09-19T03:23:28;15.40;99.90
41928;DHT22;27616;51.420;6.788;2023-09-19T03:25:55;15.40;99.90
41928;DHT22;27616;51.420;6.788;2023-09-19T03:28:24;15.40;99.90
41928;DHT22;27616;51.420;6.788;2023-09-19T03:31:02;15.40;99.90
41928;DHT22;27616;51.420;6.788;2023-09-19T03:33:29;15.40;99.90
41928;DHT22;27616;51.420;6.788;2023-09-19T03:35:59;15.40;99.90
41928;DHT22;27616;51.420;6.788;2023-09-19T03:38:26;15.40;99.90
41928;DHT22;27616;51.420;6.788;2023-09-19T03:40:53;15.40;99.90
41928;DHT22;27616;51.420;6.788;2023-09-19T03:43:19;15.40;99.90
41928;DHT22;27616;51.420;6.788;2023-09-19T03:45:44;15.40;99.90
41928;DHT22;27616;51.420;6.788;2023-09-19T03:48:13;15.30;99.90
41928;DHT22;27616;51.420;6.788;2023-09-19T03:50:39;15.30;99.90
41928;DHT22;27616;51.420;6.788;2023-09-19T03:53:05;15.30;99.90
41928;DHT22;27616;51.420;6.788;2023-09-19T03:55:33;15.30;99.90
41928;DHT22;27616;51.420;6.788;2023-09-19T03:58:04;15.40;99.90
41928;DHT22;27616;51.420;6.788;2023-09-19T04:00:30;15.30;99.90
41928;DHT22;27616;51.420;6.788;2023-09-19T04:02:55;15.30;99.90
41928;DHT22;27616;51.420;6.788;2023-09-19T04:05:22;15.30;99.90
41928;DHT22;27616;51.420;6.788;2023-09-19T04:07:48;15.30;99.90
41928;DHT22;27616;51.420;6.788;2023-09-19T04:10:24;15.30;99.90
41928;DHT22;27616;51.420;6.788;2023-09-19T04:12:53;15.30;99.90
41928;DHT22;27616;51.420;6.788;2023-09-19T04:15:19;15.30;99.90
41928;DHT22;27616;51.420;6.788;2023-09-19T04:17:47;15.30;99.90
41928;DHT22;27616;51.420;6.788;2023-09-19T04:20:13;15.30;99.90
41928;DHT22;27616;51.420;6.788;2023-09-19T04:22:39;15.30;99.90
41928;DHT22;27616;51.420;6.788;2023-09-19T04:25:07;15.20;99.90
41928;DHT22;27616;51.420;6.788;2023-09-19T04:27:33;15.20;99.90
41928;DHT22;27616;51.420;6.788;2023-09-19T04:29:59;15.20;99.90
41928;DHT22;27616;51.420;6.788;2023-09-19T04:32:28;15.20;99.90
41928;DHT22;27616;51.420;6.788;2023-09-19T04:34:54;15.20;99.90
41928;DHT22;27616;51.420;6.788;2023-09-19T04:37:20;15.10;99.90
41928;DHT22;27616;51.420;6.788;2023-09-19T04:39:47;15.10;99.90
41928;DHT22;27616;51.420;6.788;2023-09-19T04:42:13;15.10;99.90
41928;DHT22;27616;51.420;6.788;2023-09-19T04:44:40;15.10;99.90
41928;DHT22;27616;51.420;6.788;2023-09-19T04:47:05;15.10;99.90
41928;DHT22;27616;51.420;6.788;2023-09-19T04:49:31;15.10;99.90
41928;DHT22;27616;51.420;6.788;2023-09-19T04:51:57;15.10;99.90
41928;DHT22;27616;51.420;6.788;2023-09-19T04:54:23;15.00;99.90
41928;DHT22;27616;51.420;6.788;2023-09-19T04:56:48;15.00;99.90
41928;DHT22;27616;51.420;6.788;2023-09-19T04:59:14;15.10;99.90
41928;DHT22;27616;51.420;6.788;2023-09-19T05:01:41;15.10;99.90
41928;DHT22;27616;51.420;6.788;2023-09-19T05:04:07;15.20;99.90
41928;DHT22;27616;51.420;6.788;2023-09-19T05:06:32;15.10;99.90
41928;DHT22;27616;51.420;6.788;2023-09-19T05:08:59;15.10;99.90
41928;DHT22;27616;51.420;6.788;2023-09-19T05:11:25;15.10;99.90
41928;DHT22;27616;51.420;6.788;2023-09-19T05:13:51;15.00;99.90
41928;DHT22;27616;51.420;6.788;2023-09-19T05:16:18;15.10;99.90
41928;DHT22;27616;51.420;6.788;2023-09-19T05:18:44;15.10;99.90
41928;DHT22;27616;51.420;6.788;2023-09-19T05:21:10;15.10;99.90
41928;DHT22;27616;51.420;6.788;2023-09-19T05:23:35;15.20;99.90
41928;DHT22;27616;51.420;6.788;2023-09-19T05:26:02;15.30;99.90
41928;DHT22;27616;51.420;6.788;2023-09-19T05:28:29;15.30;99.90
41928;DHT22;27616;51.420;6.788;2023-09-19T05:30:55;15.40;99.90
41928;DHT22;27616;51.420;6.788;2023-09-19T05:33:21;15.40;99.90
41928;DHT22;27616;51.420;6.788;2023-09-19T05:35:49;15.40;99.90
41928;DHT22;27616;51.420;6.788;2023-09-19T05:38:15;15.40;99.90
41928;DHT22;27616;51.420;6.788;2023-09-19T05:40:45;15.50;99.90
41928;DHT22;27616;51.420;6.788;2023-09-19T05:43:10;15.50;99.90
41928;DHT22;27616;51.420;6.788;2023-09-19T05:45:36;15.50;99.90
41928;DHT22;27616;51.420;6.788;2023-09-19T05:48:13;15.50;99.90
41928;DHT22;27616;51.420;6.788;2023-09-19T05:50:41;15.50;99.90
41928;DHT22;27616;51.420;6.788;2023-09-19T05:53:07;15.40;99.90
41928;DHT22;27616;51.420;6.788;2023-09-19T05:55:33;15.40;99.90
41928;DHT22;27616;51.420;6.788;2023-09-19T05:57:59;15.40;99.90
41928;DHT22;27616;51.420;6.788;2023-09-19T06:00:25;15.40;99.90
41928;DHT22;27616;51.420;6.788;2023-09-19T06:02:53;15.40;99.90
41928;DHT22;27616;51.420;6.788;2023-09-19T06:05:20;15.50;99.90
41928;DHT22;27616;51.420;6.788;2023-09-19T06:07:46;15.50;99.90
41928;DHT22;27616;51.420;6.788;2023-09-19T06:10:12;15.50;99.90
41928;DHT22;27616;51.420;6.788;2023-09-19T06:12:39;15.60;99.90
41928;DHT22;27616;51.420;6.788;2023-09-19T06:15:05;15.60;99.90
41928;DHT22;27616;51.420;6.788;2023-09-19T06:17:34;15.70;99.90
41928;DHT22;27616;51.420;6.788;2023-09-19T06:20:06;15.70;99.90
41928;DHT22;27616;51.420;6.788;2023-09-19T06:22:38;15.70;99.90
41928;DHT22;27616;51.420;6.788;2023-09-19T06:25:05;15.70;99.90
41928;DHT22;27616;51.420;6.788;2023-09-19T06:27:30;15.70;99.90
41928;DHT22;27616;51.420;6.788;2023-09-19T06:29:56;15.70;99.90
41928;DHT22;27616;51.420;6.788;2023-09-19T06:32:27;15.70;99.90
41928;DHT22;27616;51.420;6.788;2023-09-19T06:34:53;15.70;99.90
41928;DHT22;27616;51.420;6.788;2023-09-19T06:37:27;15.70;99.90
41928;DHT22;27616;51.420;6.788;2023-09-19T06:39:53;15.60;99.90
41928;DHT22;27616;51.420;6.788;2023-09-19T06:42:19;15.60;99.90
41928;DHT22;27616;51.420;6.788;2023-09-19T06:44:44;15.70;99.90
41928;DHT22;27616;51.420;6.788;2023-09-19T06:47:10;15.70;99.90
41928;DHT22;27616;51.420;6.788;2023-09-19T06:49:36;15.70;99.90
41928;DHT22;27616;51.420;6.788;2023-09-19T06:52:02;15.70;99.90
41928;DHT22;27616;51.420;6.788;2023-09-19T06:54:28;15.70;99.90
41928;DHT22;27616;51.420;6.788;2023-09-19T06:56:57;15.70;99.90
41928;DHT22;27616;51.420;6.788;2023-09-19T06:59:25;15.80;99.90
41928;DHT22;27616;51.420;6.788;2023-09-19T07:01:51;15.80;99.90
41928;DHT22;27616;51.420;6.788;2023-09-19T07:04:17;15.80;99.90
41928;DHT22;27616;51.420;6.788;2023-09-19T07:06:49;15.80;99.90
41928;DHT22;27616;51.420;6.788;2023-09-19T07:09:17;15.90;99.90
41928;DHT22;27616;51.420;6.788;2023-09-19T07:11:45;15.90;99.90
41928;DHT22;27616;51.420;6.788;2023-09-19T07:14:10;15.90;99.90
41928;DHT22;27616;51.420;6.788;2023-09-19T07:16:39;15.90;99.90
41928;DHT22;27616;51.420;6.788;2023-09-19T07:19:08;15.90;99.90
41928;DHT22;27616;51.420;6.788;2023-09-19T07:21:33;15.90;99.90
41928;DHT22;27616;51.420;6.788;2023-09-19T07:24:01;16.00;99.90
41928;DHT22;27616;51.420;6.788;2023-09-19T07:26:27;16.00;99.90
41928;DHT22;27616;51.420;6.788;2023-09-19T07:28:53;16.00;99.90
41928;DHT22;27616;51.420;6.788;2023-09-19T07:31:19;16.00;99.90
41928;DHT22;27616;51.420;6.788;2023-09-19T07:33:45;16.10;99.90
41928;DHT22;27616;51.420;6.788;2023-09-19T07:36:11;16.10;99.90
41928;DHT22;27616;51.420;6.788;2023-09-19T07:38:39;16.30;99.90
41928;DHT22;27616;51.420;6.788;2023-09-19T07:41:05;16.40;99.90
41928;DHT22;27616;51.420;6.788;2023-09-19T07:43:31;16.40;99.90
41928;DHT22;27616;51.420;6.788;2023-09-19T07:45:57;16.50;99.90
41928;DHT22;27616;51.420;6.788;2023-09-19T07:48:26;16.50;99.90
41928;DHT22;27616;51.420;6.788;2023-09-19T07:50:51;16.50;99.90
41928;DHT22;27616;51.420;6.788;2023-09-19T07:53:17;16.50;99.90
41928;DHT22;27616;51.420;6.788;2023-09-19T07:55:43;16.40;99.90
41928;DHT22;27616;51.420;6.788;2023-09-19T07:58:09;16.40;99.90
41928;DHT22;27616;51.420;6.788;2023-09-19T08:00:34;16.30;99.90
41928;DHT22;27616;51.420;6.788;2023-09-19T08:03:00;16.30;99.90
41928;DHT22;27616;51.420;6.788;2023-09-19T08:05:26;16.30;99.90
41928;DHT22;27616;51.420;6.788;2023-09-19T08:07:52;16.30;99.90
41928;DHT22;27616;51.420;6.788;2023-09-19T08:10:19;16.40;99.90
41928;DHT22;27616;51.420;6.788;2023-09-19T08:12:47;16.40;99.90
41928;DHT22;27616;51.420;6.788;2023-09-19T08:15:18;16.40;99.90
41928;DHT22;27616;51.420;6.788;2023-09-19T08:17:45;16.50;99.90
41928;DHT22;27616;51.420;6.788;2023-09-19T08:20:12;16.50;99.90
41928;DHT22;27616;51.420;6.788;2023-09-19T08:22:50;16.60;99.90
41928;DHT22;27616;51.420;6.788;2023-09-19T08:25:18;16.70;99.90
41928;DHT22;27616;51.420;6.788;2023-09-19T08:27:44;16.80;99.90
41928;DHT22;27616;51.420;6.788;2023-09-19T08:30:17;17.00;99.90
41928;DHT22;27616;51.420;6.788;2023-09-19T08:32:43;17.20;99.90
41928;DHT22;27616;51.420;6.788;2023-09-19T08:35:10;17.30;99.90
41928;DHT22;27616;51.420;6.788;2023-09-19T08:37:36;17.50;99.90
41928;DHT22;27616;51.420;6.788;2023-09-19T08:40:02;17.50;99.90
41928;DHT22;27616;51.420;6.788;2023-09-19T08:42:27;17.50;99.90
41928;DHT22;27616;51.420;6.788;2023-09-19T08:44:53;17.60;99.90
41928;DHT22;27616;51.420;6.788;2023-09-19T08:47:34;17.70;99.90
41928;DHT22;27616;51.420;6.788;2023-09-19T08:50:26;17.70;99.90
41928;DHT22;27616;51.420;6.788;2023-09-19T08:52:55;17.60;99.90
41928;DHT22;27616;51.420;6.788;2023-09-19T08:55:28;17.50;99.90
41928;DHT22;27616;51.420;6.788;2023-09-19T08:58:01;17.50;99.90
41928;DHT22;27616;51.420;6.788;2023-09-19T09:00:28;17.60;99.90
41928;DHT22;27616;51.420;6.788;2023-09-19T09:02:55;17.60;99.90
41928;DHT22;27616;51.420;6.788;2023-09-19T09:05:22;17.70;99.90
41928;DHT22;27616;51.420;6.788;2023-09-19T09:07:52;17.70;99.90
41928;DHT22;27616;51.420;6.788;2023-09-19T09:10:20;17.80;99.90
41928;DHT22;27616;51.420;6.788;2023-09-19T09:12:52;17.80;99.90
41928;DHT22;27616;51.420;6.788;2023-09-19T09:15:22;17.80;99.90
41928;DHT22;27616;51.420;6.788;2023-09-19T09:17:49;17.70;99.90
41928;DHT22;27616;51.420;6.788;2023-09-19T09:20:19;17.80;99.90
41928;DHT22;27616;51.420;6.788;2023-09-19T09:22:57;17.80;99.90
41928;DHT22;27616;51.420;6.788;2023-09-19T09:25:54;17.80;99.90
41928;DHT22;27616;51.420;6.788;2023-09-19T09:28:25;17.90;99.90
41928;DHT22;27616;51.420;6.788;2023-09-19T09:30:52;18.00;99.90
41928;DHT22;27616;51.420;6.788;2023-09-19T09:33:18;18.00;99.90
41928;DHT22;27616;51.420;6.788;2023-09-19T09:35:51;18.10;99.90
41928;DHT22;27616;51.420;6.788;2023-09-19T09:38:23;18.10;99.90
41928;DHT22;27616;51.420;6.788;2023-09-19T09:40:57;18.20;99.90
41928;DHT22;27616;51.420;6.788;2023-09-19T09:43:33;18.20;99.90
41928;DHT22;27616;51.420;6.788;2023-09-19T09:46:08;18.30;99.90
41928;DHT22;27616;51.420;6.788;2023-09-19T09:51:49;18.30;99.90
41928;DHT22;27616;51.420;6.788;2023-09-19T09:54:24;18.40;99.90
41928;DHT22;27616;51.420;6.788;2023-09-19T09:56:57;18.30;99.90
41928;DHT22;27616;51.420;6.788;2023-09-19T09:59:48;18.40;99.90
41928;DHT22;27616;51.420;6.788;2023-09-19T10:02:34;18.40;99.90
41928;DHT22;27616;51.420;6.788;2023-09-19T10:05:18;18.60;99.90
41928;DHT22;27616;51.420;6.788;2023-09-19T10:07:51;18.80;99.90
41928;DHT22;27616;51.420;6.788;2023-09-19T10:10:35;19.00;99.90
41928;DHT22;27616;51.420;6.788;2023-09-19T10:13:14;19.10;99.90
41928;DHT22;27616;51.420;6.788;2023-09-19T10:15:46;19.30;99.90
41928;DHT22;27616;51.420;6.788;2023-09-19T10:18:20;19.70;99.90
41928;DHT22;27616;51.420;6.788;2023-09-19T10:20:46;20.00;99.90
41928;DHT22;27616;51.420;6.788;2023-09-19T10:23:13;20.40;99.90
41928;DHT22;27616;51.420;6.788;2023-09-19T10:25:43;20.50;99.90
41928;DHT22;27616;51.420;6.788;2023-09-19T10:28:13;20.70;99.90
41928;DHT22;27616;51.420;6.788;2023-09-19T10:30:45;20.80;99.90
41928;DHT22;27616;51.420;6.788;2023-09-19T10:33:15;21.10;99.90
41928;DHT22;27616;51.420;6.788;2023-09-19T10:35:48;21.30;99.90
41928;DHT22;27616;51.420;6.788;2023-09-19T10:38:17;20.80;99.90
41928;DHT22;27616;51.420;6.788;2023-09-19T10:40:44;20.40;99.90
41928;DHT22;27616;51.420;6.788;2023-09-19T10:43:16;20.30;99.90
41928;DHT22;27616;51.420;6.788;2023-09-19T10:45:49;20.50;99.90
41928;DHT22;27616;51.420;6.788;2023-09-19T10:48:18;20.80;99.90
41928;DHT22;27616;51.420;6.788;2023-09-19T10:53:26;21.00;99.90
41928;DHT22;27616;51.420;6.788;2023-09-19T10:55:55;21.10;99.90
41928;DHT22;27616;51.420;6.788;2023-09-19T10:58:27;20.80;99.90
41928;DHT22;27616;51.420;6.788;2023-09-19T11:00:57;20.40;99.90
41928;DHT22;27616;51.420;6.788;2023-09-19T11:03:32;20.20;99.90
41928;DHT22;27616;51.420;6.788;2023-09-19T11:06:07;20.20;99.90
41928;DHT22;27616;51.420;6.788;2023-09-19T11:11:40;20.10;99.90
41928;DHT22;27616;51.420;6.788;2023-09-19T11:14:37;20.00;99.90
41928;DHT22;27616;51.420;6.788;2023-09-19T11:30:34;20.20;99.90
41928;DHT22;27616;51.420;6.788;2023-09-19T11:36:16;20.10;99.90
41928;DHT22;27616;51.420;6.788;2023-09-19T11:46:17;20.20;99.90
41928;DHT22;27616;51.420;6.788;2023-09-19T11:48:51;20.20;99.90
41928;DHT22;27616;51.420;6.788;2023-09-19T11:51:18;20.20;99.90
41928;DHT22;27616;51.420;6.788;2023-09-19T11:53:47;20.10;99.90
41928;DHT22;27616;51.420;6.788;2023-09-19T11:56:16;20.10;99.90
41928;DHT22;27616;51.420;6.788;2023-09-19T11:58:45;20.20;99.90
41928;DHT22;27616;51.420;6.788;2023-09-19T12:01:13;20.30;99.90
41928;DHT22;27616;51.420;6.788;2023-09-19T12:03:46;20.40;99.90
41928;DHT22;27616;51.420;6.788;2023-09-19T12:06:15;20.50;99.90
41928;DHT22;27616;51.420;6.788;2023-09-19T12:08:42;20.50;99.90
41928;DHT22;27616;51.420;6.788;2023-09-19T12:11:16;20.60;99.90
41928;DHT22;27616;51.420;6.788;2023-09-19T12:13:43;20.60;99.90
41928;DHT22;27616;51.420;6.788;2023-09-19T12:16:17;20.70;99.90
41928;DHT22;27616;51.420;6.788;2023-09-19T12:18:45;20.70;99.90
41928;DHT22;27616;51.420;6.788;2023-09-19T12:21:32;20.70;99.90
41928;DHT22;27616;51.420;6.788;2023-09-19T12:26:24;20.80;99.90
41928;DHT22;27616;51.420;6.788;2023-09-19T12:28:52;20.80;99.70
41928;DHT22;27616;51.420;6.788;2023-09-19T12:31:20;20.80;99.70
41928;DHT22;27616;51.420;6.788;2023-09-19T12:33:45;20.90;99.90
41928;DHT22;27616;51.420;6.788;2023-09-19T12:36:20;20.90;99.40
41928;DHT22;27616;51.420;6.788;2023-09-19T12:38:54;20.90;99.90
41928;DHT22;27616;51.420;6.788;2023-09-19T12:41:20;20.80;99.90
41928;DHT22;27616;51.420;6.788;2023-09-19T12:43:47;20.80;99.90
41928;DHT22;27616;51.420;6.788;2023-09-19T12:46:13;20.80;99.90
41928;DHT22;27616;51.420;6.788;2023-09-19T12:48:40;20.90;99.90
41928;DHT22;27616;51.420;6.788;2023-09-19T12:51:10;21.10;99.60
41928;DHT22;27616;51.420;6.788;2023-09-19T12:53:45;21.10;99.60
41928;DHT22;27616;51.420;6.788;2023-09-19T12:56:17;21.00;99.90
41928;DHT22;27616;51.420;6.788;2023-09-19T13:01:16;21.10;99.80
41928;DHT22;27616;51.420;6.788;2023-09-19T13:03:41;21.20;99.70
41928;DHT22;27616;51.420;6.788;2023-09-19T13:06:07;21.20;99.50
41928;DHT22;27616;51.420;6.788;2023-09-19T13:08:39;21.20;99.50
41928;DHT22;27616;51.420;6.788;2023-09-19T13:11:14;21.20;99.50
41928;DHT22;27616;51.420;6.788;2023-09-19T13:16:33;20.80;99.90
41928;DHT22;27616;51.420;6.788;2023-09-19T13:18:59;20.70;99.90
41928;DHT22;27616;51.420;6.788;2023-09-19T13:21:34;20.70;99.90
41928;DHT22;27616;51.420;6.788;2023-09-19T13:24:23;20.60;99.90
41928;DHT22;27616;51.420;6.788;2023-09-19T13:26:51;20.60;99.90
41928;DHT22;27616;51.420;6.788;2023-09-19T13:29:16;20.60;99.90
41928;DHT22;27616;51.420;6.788;2023-09-19T13:31:47;20.50;99.90
41928;DHT22;27616;51.420;6.788;2023-09-19T13:34:13;20.50;99.90
41928;DHT22;27616;51.420;6.788;2023-09-19T13:36:41;20.50;99.90
41928;DHT22;27616;51.420;6.788;2023-09-19T13:39:07;20.50;99.90
41928;DHT22;27616;51.420;6.788;2023-09-19T13:41:35;20.40;99.90
41928;DHT22;27616;51.420;6.788;2023-09-19T13:44:02;20.40;99.90
41928;DHT22;27616;51.420;6.788;2023-09-19T13:46:28;20.30;99.90
41928;DHT22;27616;51.420;6.788;2023-09-19T13:48:56;20.20;99.90
41928;DHT22;27616;51.420;6.788;2023-09-19T13:51:26;20.20;99.90
41928;DHT22;27616;51.420;6.788;2023-09-19T13:53:52;20.10;99.90
41928;DHT22;27616;51.420;6.788;2023-09-19T13:56:17;20.00;99.90
41928;DHT22;27616;51.420;6.788;2023-09-19T13:58:43;20.10;99.90
41928;DHT22;27616;51.420;6.788;2023-09-19T14:01:09;20.10;99.90
41928;DHT22;27616;51.420;6.788;2023-09-19T14:03:41;20.00;99.90
41928;DHT22;27616;51.420;6.788;2023-09-19T14:06:13;20.00;99.90
41928;DHT22;27616;51.420;6.788;2023-09-19T14:08:38;20.00;99.90
41928;DHT22;27616;51.420;6.788;2023-09-19T14:11:08;20.10;99.90
41928;DHT22;27616;51.420;6.788;2023-09-19T14:13:34;20.10;99.90
41928;DHT22;27616;51.420;6.788;2023-09-19T14:16:04;20.10;99.90
41928;DHT22;27616;51.420;6.788;2023-09-19T14:18:31;20.10;99.90
41928;DHT22;27616;51.420;6.788;2023-09-19T14:20:56;20.00;99.90
41928;DHT22;27616;51.420;6.788;2023-09-19T14:23:22;20.00;99.90
41928;DHT22;27616;51.420;6.788;2023-09-19T14:25:50;19.90;99.90
41928;DHT22;27616;51.420;6.788;2023-09-19T14:28:16;19.90;99.90
41928;DHT22;27616;51.420;6.788;2023-09-19T14:30:41;19.90;99.90
41928;DHT22;27616;51.420;6.788;2023-09-19T14:33:07;20.00;99.90
41928;DHT22;27616;51.420;6.788;2023-09-19T14:35:33;20.00;99.90
41928;DHT22;27616;51.420;6.788;2023-09-19T14:37:58;20.00;99.90
41928;DHT22;27616;51.420;6.788;2023-09-19T14:40:24;20.00;99.90
41928;DHT22;27616;51.420;6.788;2023-09-19T14:42:51;20.10;99.90
41928;DHT22;27616;51.420;6.788;2023-09-19T14:45:16;20.10;99.90
41928;DHT22;27616;51.420;6.788;2023-09-19T14:47:46;20.10;99.90
41928;DHT22;27616;51.420;6.788;2023-09-19T14:50:13;20.00;99.90
41928;DHT22;27616;51.420;6.788;2023-09-19T14:52:38;20.00;99.90
41928;DHT22;27616;51.420;6.788;2023-09-19T14:55:06;20.00;99.90
41928;DHT22;27616;51.420;6.788;2023-09-19T14:57:34;20.00;99.90
41928;DHT22;27616;51.420;6.788;2023-09-19T14:59:59;20.00;99.90
41928;DHT22;27616;51.420;6.788;2023-09-19T15:02:25;20.00;99.90
41928;DHT22;27616;51.420;6.788;2023-09-19T15:04:52;20.00;99.90
41928;DHT22;27616;51.420;6.788;2023-09-19T15:07:18;20.00;99.90
41928;DHT22;27616;51.420;6.788;2023-09-19T15:09:44;20.00;99.90
41928;DHT22;27616;51.420;6.788;2023-09-19T15:12:09;20.00;99.90
41928;DHT22;27616;51.420;6.788;2023-09-19T15:14:40;19.90;99.90
41928;DHT22;27616;51.420;6.788;2023-09-19T15:17:06;19.90;99.90
41928;DHT22;27616;51.420;6.788;2023-09-19T15:19:31;19.90;99.90
41928;DHT22;27616;51.420;6.788;2023-09-19T15:21:57;19.90;99.90
41928;DHT22;27616;51.420;6.788;2023-09-19T15:24:23;19.90;99.90
41928;DHT22;27616;51.420;6.788;2023-09-19T15:26:52;19.90;99.90
41928;DHT22;27616;51.420;6.788;2023-09-19T15:29:17;19.90;99.90
41928;DHT22;27616;51.420;6.788;2023-09-19T15:31:45;19.90;99.90
41928;DHT22;27616;51.420;6.788;2023-09-19T15:34:11;19.90;99.90
41928;DHT22;27616;51.420;6.788;2023-09-19T15:36:39;20.00;99.90
41928;DHT22;27616;51.420;6.788;2023-09-19T15:39:07;20.00;99.90
41928;DHT22;27616;51.420;6.788;2023-09-19T15:41:40;20.10;99.90
41928;DHT22;27616;51.420;6.788;2023-09-19T15:44:13;20.10;99.90
41928;DHT22;27616;51.420;6.788;2023-09-19T15:46:39;20.10;99.90
41928;DHT22;27616;51.420;6.788;2023-09-19T15:49:06;20.10;99.90
41928;DHT22;27616;51.420;6.788;2023-09-19T15:51:32;20.10;99.90
41928;DHT22;27616;51.420;6.788;2023-09-19T15:53:58;20.00;99.90
41928;DHT22;27616;51.420;6.788;2023-09-19T15:56:27;20.00;99.90
41928;DHT22;27616;51.420;6.788;2023-09-19T15:58:55;19.90;99.90
41928;DHT22;27616;51.420;6.788;2023-09-19T16:01:21;19.90;99.90
41928;DHT22;27616;51.420;6.788;2023-09-19T16:03:49;19.80;99.90
41928;DHT22;27616;51.420;6.788;2023-09-19T16:06:19;19.80;99.90
41928;DHT22;27616;51.420;6.788;2023-09-19T16:08:46;19.80;99.90
41928;DHT22;27616;51.420;6.788;2023-09-19T16:11:12;19.70;99.90
41928;DHT22;27616;51.420;6.788;2023-09-19T16:13:39;19.60;99.90
41928;DHT22;27616;51.420;6.788;2023-09-19T16:16:10;19.60;99.90
41928;DHT22;27616;51.420;6.788;2023-09-19T16:18:40;19.60;99.90
41928;DHT22;27616;51.420;6.788;2023-09-19T16:21:06;19.60;99.90
41928;DHT22;27616;51.420;6.788;2023-09-19T16:23:36;19.60;99.90
41928;DHT22;27616;51.420;6.788;2023-09-19T16:26:06;19.60;99.90
41928;DHT22;27616;51.420;6.788;2023-09-19T16:28:33;19.50;99.90
41928;DHT22;27616;51.420;6.788;2023-09-19T16:31:06;19.60;99.90
41928;DHT22;27616;51.420;6.788;2023-09-19T16:33:36;19.60;99.90